Time;durP1;ratioP1;P1;durP2;ratioP2;P2;SDS_P1;SDS_P2;PMS_P1;PMS_P2;Temp;Humidity;BMP_temperature;BMP_pressure;BME280_temperature;BME280_humidity;BME280_pressure;Samples;Min_cycle;Max_cycle;Signal;HPM_P1;HPM_P2
2023/03/18 00:00:10;;;;;;;14.50;6.20;;;;;;;12.06;78.33;100579.81;4977662;28;20042;-84
2023/03/18 00:02:37;;;;;;;13.35;6.30;;;;;;;12.04;79.00;100580.03;4977834;28;20359;-84
2023/03/18 00:05:04;;;;;;;12.70;6.35;;;;;;;12.04;78.84;100580.03;4995253;28;20038;-84
2023/03/18 00:07:30;;;;;;;13.75;6.47;;;;;;;12.02;78.83;100579.44;4978038;28;20037;-85
2023/03/18 00:09:55;;;;;;;11.73;6.60;;;;;;;12.02;78.74;100584.06;4962008;28;20031;-84
2023/03/18 00:12:23;;;;;;;11.52;6.35;;;;;;;12.00;78.57;100587.03;4961352;28;20045;-85
2023/03/18 00:14:50;;;;;;;10.45;6.28;;;;;;;11.99;79.21;100587.22;4961574;28;20463;-85
2023/03/18 00:17:16;;;;;;;13.33;6.47;;;;;;;11.95;79.32;100594.19;4977223;28;20034;-85
2023/03/18 00:19:41;;;;;;;14.55;6.85;;;;;;;11.92;79.83;100596.28;4994144;28;20499;-85
2023/03/18 00:22:09;;;;;;;16.13;6.70;;;;;;;11.90;79.78;100590.25;4960921;28;20570;-85
2023/03/18 00:24:34;;;;;;;15.45;6.90;;;;;;;11.89;79.75;100588.59;4946001;28;20054;-85
2023/03/18 00:27:00;;;;;;;11.30;6.43;;;;;;;11.88;80.04;100597.78;4960761;28;20062;-85
2023/03/18 00:29:25;;;;;;;11.33;6.67;;;;;;;11.88;80.34;100596.97;4960726;28;20037;-85
2023/03/18 00:31:50;;;;;;;13.77;6.35;;;;;;;11.87;80.47;100604.31;4960488;28;20035;-85
2023/03/18 00:34:17;;;;;;;15.50;6.47;;;;;;;11.84;80.65;100604.75;4976838;28;20038;-85
2023/03/18 00:36:44;;;;;;;12.07;6.10;;;;;;;11.84;80.64;100606.63;4976410;28;20030;-85
2023/03/18 00:39:10;;;;;;;14.63;6.13;;;;;;;11.84;80.84;100607.50;4961697;28;20482;-85
2023/03/18 00:41:38;;;;;;;15.33;6.90;;;;;;;11.83;81.34;100603.09;4976717;28;20141;-85
2023/03/18 00:44:04;;;;;;;10.98;6.50;;;;;;;11.81;81.25;100610.66;4960977;28;20037;-85
2023/03/18 00:46:32;;;;;;;14.20;6.03;;;;;;;11.80;81.75;100608.19;4994410;28;20034;-85
2023/03/18 00:49:00;;;;;;;13.17;7.10;;;;;;;11.80;81.50;100619.06;4977149;28;20343;-85
2023/03/18 00:51:30;;;;;;;14.75;6.50;;;;;;;11.77;81.65;100618.44;4976661;28;20034;-85
2023/03/18 00:53:57;;;;;;;14.55;6.35;;;;;;;11.80;81.92;100619.06;4994191;28;20078;-85
2023/03/18 00:56:25;;;;;;;13.13;6.28;;;;;;;11.77;82.11;100620.34;4994074;28;20084;-85
2023/03/18 00:58:52;;;;;;;13.20;6.68;;;;;;;11.79;82.63;100622.81;4994006;28;20034;-85
2023/03/18 01:01:19;;;;;;;12.43;6.37;;;;;;;11.75;83.58;100619.72;4977156;28;20173;-85
2023/03/18 01:03:46;;;;;;;11.80;5.72;;;;;;;11.77;83.20;100623.88;4993826;28;20034;-84
2023/03/18 01:06:15;;;;;;;17.00;6.35;;;;;;;11.79;83.87;100622.81;4960725;28;20034;-85
2023/03/18 01:08:41;;;;;;;15.63;6.28;;;;;;;11.78;83.96;100619.28;4994277;28;20039;-85
2023/03/18 01:11:07;;;;;;;12.35;6.40;;;;;;;11.77;84.37;100612.19;4977075;28;20027;-85
2023/03/18 01:13:34;;;;;;;15.10;6.53;;;;;;;11.76;84.93;100615.94;4993950;28;20467;-85
2023/03/18 01:16:02;;;;;;;15.65;6.82;;;;;;;11.70;87.09;100614.97;4960371;28;20058;-85
2023/03/18 01:18:28;;;;;;;13.23;6.50;;;;;;;11.55;88.69;100617.25;4976261;28;20034;-86
2023/03/18 01:20:54;;;;;;;15.10;6.55;;;;;;;11.29;90.46;100611.06;4976957;28;20109;-85
2023/03/18 01:23:20;;;;;;;12.03;6.33;;;;;;;11.10;93.13;100609.41;4993638;28;20482;-85
2023/03/18 01:25:45;;;;;;;16.67;7.32;;;;;;;10.93;95.44;100614.59;4960761;28;20034;-85
2023/03/18 01:28:12;;;;;;;18.93;7.10;;;;;;;10.70;98.69;100621.44;4960317;28;20034;-85
2023/03/18 01:30:38;;;;;;;14.52;7.65;;;;;;;10.52;100.00;100616.81;4976313;28;20125;-85
2023/03/18 01:33:06;;;;;;;17.30;8.13;;;;;;;10.36;100.00;100623.59;4976353;28;20065;-85
2023/03/18 01:35:32;;;;;;;22.83;8.07;;;;;;;10.25;100.00;100618.84;4976788;28;20045;-85
2023/03/18 01:37:58;;;;;;;17.38;8.13;;;;;;;10.15;100.00;100622.84;4960498;28;20113;-85
2023/03/18 01:40:25;;;;;;;16.52;8.68;;;;;;;10.07;100.00;100608.72;4976460;28;20585;-84
2023/03/18 01:43:00;;;;;;;19.77;10.18;;;;;;;10.01;100.00;100614.00;4959955;28;20394;-85
2023/03/18 01:45:28;;;;;;;21.50;10.03;;;;;;;10.01;100.00;100618.59;4977119;28;20030;-85
2023/03/18 01:47:54;;;;;;;22.83;10.80;;;;;;;10.00;100.00;100622.34;4976174;28;20041;-85
2023/03/18 01:50:33;;;;;;;24.17;11.55;;;;;;;9.90;100.00;100622.78;4979110;28;20105;-85
2023/03/18 01:53:05;;;;;;;21.27;10.77;;;;;;;9.92;100.00;100619.88;4997650;28;20050;-85
2023/03/18 01:55:32;;;;;;;20.83;10.95;;;;;;;9.90;100.00;100611.13;4980391;28;20032;-85
2023/03/18 01:57:58;;;;;;;27.73;11.43;;;;;;;9.90;100.00;100616.56;4997010;28;20034;-85
2023/03/18 02:00:24;;;;;;;21.30;11.15;;;;;;;9.88;100.00;100621.38;4947680;28;20087;-85
2023/03/18 02:02:54;;;;;;;22.27;11.48;;;;;;;9.89;100.00;100625.72;4963384;28;20466;-85
2023/03/18 02:05:23;;;;;;;21.13;11.67;;;;;;;9.83;100.00;100620.13;4980245;28;20097;-86
2023/03/18 02:07:51;;;;;;;20.92;11.18;;;;;;;9.83;100.00;100612.00;4997072;28;20478;-85
2023/03/18 02:10:23;;;;;;;23.95;11.82;;;;;;;9.82;100.00;100612.22;4979245;28;20493;-85
2023/03/18 02:12:59;;;;;;;24.65;12.00;;;;;;;9.82;100.00;100615.75;4996717;28;20034;-85
2023/03/18 02:15:27;;;;;;;29.20;13.48;;;;;;;9.81;100.00;100619.50;4997085;28;20104;-85
2023/03/18 02:18:06;;;;;;;24.88;12.50;;;;;;;9.81;100.00;100618.69;4978688;28;20026;-85
2023/03/18 02:20:34;;;;;;;29.10;12.73;;;;;;;9.81;100.00;100624.91;4979978;28;20381;-85
2023/03/18 02:23:10;;;;;;;23.80;12.70;;;;;;;9.78;100.00;100619.13;4996316;28;20037;-85
2023/03/18 02:25:59;;;;;;;32.92;13.38;;;;;;;9.75;100.00;100619.53;4979134;28;20031;-86
2023/03/18 02:28:30;;;;;;;30.73;13.18;;;;;;;9.78;100.00;100638.06;4979558;28;20093;-85
2023/03/18 02:30:59;;;;;;;32.72;13.77;;;;;;;9.77;100.00;100639.97;4996212;28;20117;-85
2023/03/18 02:33:30;;;;;;;35.28;15.98;;;;;;;9.77;100.00;100639.13;4978905;28;20041;-85
2023/03/18 02:36:02;;;;;;;27.92;15.23;;;;;;;9.78;100.00;100643.50;4979176;28;20465;-85
2023/03/18 02:38:28;;;;;;;33.72;15.02;;;;;;;9.75;100.00;100649.34;4978774;28;20026;-85
2023/03/18 02:40:53;;;;;;;37.70;15.93;;;;;;;9.74;100.00;100644.97;4962631;28;20037;-85
2023/03/18 02:43:28;;;;;;;29.43;14.67;;;;;;;9.70;100.00;100649.16;4962568;28;20060;-85
2023/03/18 02:45:56;;;;;;;28.13;14.70;;;;;;;9.72;100.00;100642.47;4995860;28;20310;-85
2023/03/18 02:48:26;;;;;;;33.25;15.10;;;;;;;9.71;100.00;100643.50;4978242;28;20494;-86
2023/03/18 02:50:52;;;;;;;34.85;15.85;;;;;;;9.72;100.00;100650.59;4996033;28;20030;-85
2023/03/18 02:53:18;;;;;;;30.75;15.38;;;;;;;9.70;100.00;100652.72;4962246;28;20053;-85
2023/03/18 02:55:43;;;;;;;33.33;15.20;;;;;;;9.71;100.00;100656.25;4978488;28;20030;-86
2023/03/18 02:58:09;;;;;;;34.03;16.27;;;;;;;9.72;100.00;100661.44;4962418;28;20038;-86
2023/03/18 03:00:35;;;;;;;28.90;14.52;;;;;;;9.70;100.00;100662.69;4978273;28;20449;-85
2023/03/18 03:03:00;;;;;;;34.28;15.38;;;;;;;9.69;100.00;100661.88;4978482;28;20042;-85
2023/03/18 03:05:27;;;;;;;30.27;17.45;;;;;;;9.67;100.00;100669.41;4978515;28;20378;-86
2023/03/18 03:07:53;;;;;;;32.00;17.10;;;;;;;9.69;100.00;100672.72;4978256;28;20030;-86
2023/03/18 03:10:18;;;;;;;29.70;15.70;;;;;;;9.66;100.00;100671.25;4979087;28;20029;-85
2023/03/18 03:12:44;;;;;;;29.83;16.70;;;;;;;9.68;100.00;100673.75;4962558;28;20355;-85
2023/03/18 03:15:10;;;;;;;31.10;16.37;;;;;;;9.68;100.00;100681.06;4962247;28;20360;-86
2023/03/18 03:17:36;;;;;;;34.40;17.02;;;;;;;9.66;100.00;100681.25;4995697;28;20109;-85
2023/03/18 03:20:05;;;;;;;37.50;17.03;;;;;;;9.65;100.00;100676.88;4962501;28;20439;-86
2023/03/18 03:22:36;;;;;;;36.92;17.38;;;;;;;9.66;100.00;100678.56;4995388;28;20463;-85
2023/03/18 03:25:01;;;;;;;36.35;17.23;;;;;;;9.66;100.00;100675.84;4995700;28;20035;-85
2023/03/18 03:27:27;;;;;;;36.17;16.43;;;;;;;9.66;100.00;100678.56;4977782;28;20046;-85
2023/03/18 03:29:54;;;;;;;32.28;16.63;;;;;;;9.65;100.00;100685.88;4995376;28;20521;-86
2023/03/18 03:32:20;;;;;;;35.00;16.83;;;;;;;9.64;100.00;100684.19;4977518;28;20030;-85
2023/03/18 03:34:46;;;;;;;33.72;17.13;;;;;;;9.64;100.00;100677.91;4977980;28;20525;-86
2023/03/18 03:37:13;;;;;;;38.15;17.48;;;;;;;9.65;100.00;100679.59;4961660;28;20479;-86
2023/03/18 03:39:39;;;;;;;37.47;17.07;;;;;;;9.63;100.00;100682.50;4977924;28;20053;-86
2023/03/18 03:42:04;;;;;;;36.15;17.77;;;;;;;9.64;100.00;100677.91;4961561;28;20117;-86
2023/03/18 03:44:30;;;;;;;36.50;18.23;;;;;;;9.64;100.00;100684.19;4961632;28;20069;-85
2023/03/18 03:46:56;;;;;;;42.40;19.47;;;;;;;9.65;100.00;100685.00;4961657;28;20034;-86
2023/03/18 03:49:21;;;;;;;38.00;17.33;;;;;;;9.65;100.00;100687.72;4961111;28;20561;-85
2023/03/18 03:51:47;;;;;;;37.37;19.00;;;;;;;9.65;100.00;100685.00;4977269;28;20034;-86
2023/03/18 03:54:12;;;;;;;35.30;18.47;;;;;;;9.65;100.00;100696.69;4977503;28;20510;-86
2023/03/18 03:56:38;;;;;;;40.47;19.15;;;;;;;9.66;100.00;100701.06;4978123;28;20088;-86
2023/03/18 03:59:04;;;;;;;34.77;18.47;;;;;;;9.66;100.00;100698.34;4977570;28;20034;-86
2023/03/18 04:01:30;;;;;;;37.47;18.42;;;;;;;9.62;100.00;100693.56;4977174;28;20034;-85
2023/03/18 04:03:55;;;;;;;35.20;17.90;;;;;;;9.64;100.00;100688.75;4994781;28;20031;-86
2023/03/18 04:06:21;;;;;;;36.45;18.23;;;;;;;9.64;100.00;100699.59;4977204;28;20387;-86
2023/03/18 04:08:46;;;;;;;36.42;18.30;;;;;;;9.66;100.00;100705.66;4977231;28;20052;-86
2023/03/18 04:11:12;;;;;;;38.37;17.93;;;;;;;9.64;100.00;100705.88;4976505;28;20080;-85
2023/03/18 04:13:38;;;;;;;35.13;18.17;;;;;;;9.64;100.00;100703.16;4994810;28;20478;-85
2023/03/18 04:16:04;;;;;;;37.00;17.83;;;;;;;9.64;100.00;100705.00;4961088;28;20034;-85
2023/03/18 04:18:29;;;;;;;42.03;18.05;;;;;;;9.63;100.00;100698.78;4977214;28;20037;-85
2023/03/18 04:20:58;;;;;;;39.05;18.67;;;;;;;9.63;100.00;100695.25;4977481;28;20038;-85
2023/03/18 04:23:24;;;;;;;34.08;17.20;;;;;;;9.64;100.00;100702.28;4977599;28;20030;-85
2023/03/18 04:25:50;;;;;;;38.83;18.40;;;;;;;9.63;100.00;100698.78;4994380;28;20038;-85
2023/03/18 04:28:15;;;;;;;38.05;19.10;;;;;;;9.64;100.00;100705.88;4977176;28;20033;-85
2023/03/18 04:30:40;;;;;;;34.53;18.03;;;;;;;9.64;100.00;100710.44;4961012;28;20061;-85
2023/03/18 04:33:06;;;;;;;32.20;17.77;;;;;;;9.63;100.00;100711.50;4976631;28;20062;-86
2023/03/18 04:35:32;;;;;;;43.67;19.53;;;;;;;9.63;100.00;100706.06;4961391;28;20074;-85
2023/03/18 04:37:58;;;;;;;33.33;18.02;;;;;;;9.62;100.00;100705.22;4993888;28;20029;-85
2023/03/18 04:40:24;;;;;;;33.88;16.75;;;;;;;9.62;100.00;100713.34;4960812;28;20050;-85
2023/03/18 04:42:50;;;;;;;33.23;18.53;;;;;;;9.61;100.00;100716.28;4977114;28;20034;-85
2023/03/18 04:45:16;;;;;;;41.50;18.97;;;;;;;9.63;100.00;100714.19;4961041;28;20386;-85
2023/03/18 04:47:42;;;;;;;36.85;18.50;;;;;;;9.62;100.00;100721.47;4994084;28;20133;-85
2023/03/18 04:50:10;;;;;;;35.60;19.40;;;;;;;9.63;100.00;100725.03;4993834;28;20077;-86
2023/03/18 04:52:37;;;;;;;38.85;20.17;;;;;;;9.63;100.00;100725.03;4994112;28;20112;-86
2023/03/18 04:55:03;;;;;;;41.78;19.23;;;;;;;9.62;100.00;100732.31;4976194;28;20061;-85
2023/03/18 04:57:28;;;;;;;39.63;18.37;;;;;;;9.62;100.00;100726.91;4977032;28;20035;-85
2023/03/18 04:59:54;;;;;;;37.93;18.67;;;;;;;9.61;100.00;100737.94;4977293;28;20386;-85
2023/03/18 05:02:19;;;;;;;42.70;20.57;;;;;;;9.61;100.00;100737.94;4961201;28;20101;-85
2023/03/18 05:04:46;;;;;;;38.75;19.77;;;;;;;9.60;100.00;100739.84;4961288;28;20045;-85
2023/03/18 05:07:14;;;;;;;39.45;19.63;;;;;;;9.59;100.00;100743.56;4976461;28;20030;-85
2023/03/18 05:09:40;;;;;;;38.63;18.48;;;;;;;9.60;100.00;100747.13;4994526;28;20109;-85
2023/03/18 05:12:12;;;;;;;35.83;18.37;;;;;;;9.61;100.00;100749.63;4976516;28;20126;-86
2023/03/18 05:14:37;;;;;;;35.03;18.55;;;;;;;9.60;100.00;100744.44;4993988;28;20038;-85
2023/03/18 05:17:03;;;;;;;39.03;19.40;;;;;;;9.57;100.00;100739.44;4960010;28;20026;-85
2023/03/18 05:19:29;;;;;;;37.97;19.50;;;;;;;9.58;100.00;100735.66;4976888;28;20038;-85
2023/03/18 05:21:54;;;;;;;37.17;19.20;;;;;;;9.57;100.00;100734.03;4993871;28;20105;-85
2023/03/18 05:24:20;;;;;;;36.47;17.40;;;;;;;9.55;100.00;100738.78;4997453;28;20062;-85
2023/03/18 05:26:47;;;;;;;43.92;18.85;;;;;;;9.51;100.00;100724.84;4964085;28;20089;-85
2023/03/18 05:29:12;;;;;;;37.47;17.77;;;;;;;9.50;100.00;100719.66;4948152;28;20482;-85
2023/03/18 05:31:38;;;;;;;35.47;18.77;;;;;;;9.44;100.00;100722.16;4980224;28;20069;-85
2023/03/18 05:34:05;;;;;;;41.22;18.90;;;;;;;9.43;100.00;100725.06;4979868;28;20050;-85
2023/03/18 05:36:31;;;;;;;37.60;18.42;;;;;;;9.43;100.00;100725.06;4964223;28;20030;-85
2023/03/18 05:38:57;;;;;;;38.90;17.55;;;;;;;9.40;100.00;100720.91;4964138;28;20479;-85
2023/03/18 05:41:23;;;;;;;37.25;19.05;;;;;;;9.41;100.00;100732.56;4963889;28;20041;-85
2023/03/18 05:43:49;;;;;;;37.27;17.93;;;;;;;9.39;100.00;100737.34;4964046;28;20038;-85
2023/03/18 05:46:14;;;;;;;39.00;18.38;;;;;;;9.37;100.00;100736.75;4947964;28;20376;-85
2023/03/18 05:48:40;;;;;;;36.27;18.20;;;;;;;9.36;100.00;100743.19;4963520;28;20070;-85
2023/03/18 05:51:06;;;;;;;37.53;18.98;;;;;;;9.34;100.00;100756.13;4997237;28;20035;-86
2023/03/18 05:53:32;;;;;;;40.10;18.17;;;;;;;9.32;100.00;100759.03;4979511;28;20093;-85
2023/03/18 05:55:58;;;;;;;39.85;18.75;;;;;;;9.28;100.00;100761.31;4947752;28;20281;-85
2023/03/18 05:58:24;;;;;;;33.65;15.55;;;;;;;9.27;100.00;100765.09;4996905;28;20100;-85
2023/03/18 06:00:50;;;;;;;33.40;18.33;;;;;;;9.23;100.00;100769.25;4996988;28;20026;-85
2023/03/18 06:03:16;;;;;;;33.90;17.87;;;;;;;9.20;100.00;100768.84;4996734;28;20483;-85
2023/03/18 06:05:42;;;;;;;34.17;16.25;;;;;;;9.20;100.00;100780.50;4947346;28;20518;-85
2023/03/18 06:08:08;;;;;;;33.50;16.50;;;;;;;9.19;100.00;100768.00;4963191;28;20081;-85
2023/03/18 06:10:33;;;;;;;30.48;16.17;;;;;;;9.19;100.00;100776.09;4979601;28;20375;-85
2023/03/18 06:12:59;;;;;;;30.90;16.53;;;;;;;9.13;100.00;100775.06;4996795;28;20387;-85
2023/03/18 06:15:25;;;;;;;34.92;17.02;;;;;;;9.10;100.00;100771.94;4979182;28;20524;-85
2023/03/18 06:17:51;;;;;;;31.90;16.37;;;;;;;9.07;100.00;100773.19;4978901;28;20030;-85
2023/03/18 06:20:18;;;;;;;29.60;16.30;;;;;;;9.07;100.00;100764.25;4963207;28;20073;-85
2023/03/18 06:22:48;;;;;;;34.40;16.92;;;;;;;9.05;100.00;100774.44;4963169;28;20035;-85
2023/03/18 06:25:14;;;;;;;29.45;16.17;;;;;;;9.04;100.00;100764.66;4979863;28;20105;-85
2023/03/18 06:27:40;;;;;;;34.22;15.98;;;;;;;9.02;100.00;100767.59;4962972;28;20121;-85
2023/03/18 06:30:08;;;;;;;34.28;15.20;;;;;;;9.02;100.00;100773.00;4962974;28;20058;-85
2023/03/18 06:32:34;;;;;;;31.48;16.67;;;;;;;9.01;100.00;100775.91;4979253;28;20030;-85
2023/03/18 06:34:59;;;;;;;38.30;17.07;;;;;;;9.02;100.00;100781.13;4978387;28;20051;-87
2023/03/18 06:37:25;;;;;;;31.70;16.00;;;;;;;9.04;100.00;100776.31;4962691;28;20355;-86
2023/03/18 06:39:50;;;;;;;32.83;16.17;;;;;;;9.03;100.00;100782.75;4962879;28;20470;-86
2023/03/18 06:42:16;;;;;;;33.13;17.07;;;;;;;9.04;100.00;100792.56;4962751;28;20112;-86
2023/03/18 06:44:49;;;;;;;35.50;17.27;;;;;;;9.05;100.00;100796.06;4963150;28;20034;-87
2023/03/18 06:47:15;;;;;;;34.72;17.35;;;;;;;9.07;100.00;100789.44;4978599;28;20037;-89
2023/03/18 06:49:41;;;;;;;31.90;16.95;;;;;;;9.08;100.00;100790.25;4978627;28;20392;-85
2023/03/18 06:52:06;;;;;;;30.37;16.43;;;;;;;9.13;100.00;100801.31;4962612;28;20037;-86
2023/03/18 06:54:33;;;;;;;34.77;17.17;;;;;;;9.12;100.00;100799.63;4962005;28;20054;-86
2023/03/18 06:56:58;;;;;;;38.50;17.98;;;;;;;9.11;100.00;100796.09;4946282;28;20545;-83
2023/03/18 06:59:24;;;;;;;38.05;19.02;;;;;;;9.12;100.00;100803.19;4946384;28;20138;-84
2023/03/18 07:01:49;;;;;;;36.60;18.80;;;;;;;9.12;100.00;100799.63;4962611;28;20049;-85
2023/03/18 07:04:15;;;;;;;37.53;19.33;;;;;;;9.13;100.00;100817.53;4962154;28;20026;-86
2023/03/18 07:06:40;;;;;;;35.10;17.13;;;;;;;9.12;100.00;100808.59;4946208;28;20038;-84
2023/03/18 07:09:11;;;;;;;32.83;18.27;;;;;;;9.12;100.00;100814.03;4978899;28;20045;-84
2023/03/18 07:11:38;;;;;;;36.40;18.13;;;;;;;9.13;100.00;100812.13;4995666;28;20332;-85
2023/03/18 07:14:04;;;;;;;35.33;17.98;;;;;;;9.12;100.00;100816.72;4946284;28;20181;-84
2023/03/18 07:16:30;;;;;;;32.92;17.85;;;;;;;9.15;100.00;100812.75;4978639;28;20477;-86
2023/03/18 07:18:57;;;;;;;38.77;19.00;;;;;;;9.14;100.00;100819.22;4977487;28;20022;-86
2023/03/18 07:21:24;;;;;;;33.47;18.40;;;;;;;9.16;100.00;100819.00;4978453;28;20034;-85
2023/03/18 07:23:50;;;;;;;34.08;18.60;;;;;;;9.19;100.00;100830.25;4978575;28;20399;-85
2023/03/18 07:26:16;;;;;;;35.42;19.08;;;;;;;9.21;100.00;100830.03;4978231;28;20040;-87
2023/03/18 07:28:42;;;;;;;34.33;18.52;;;;;;;9.23;100.00;100831.50;4962421;28;20134;-83
2023/03/18 07:31:07;;;;;;;34.07;18.03;;;;;;;9.26;100.00;100830.28;4945702;28;20525;-86
2023/03/18 07:33:33;;;;;;;33.97;17.53;;;;;;;9.25;100.00;100832.13;4977575;28;20041;-86
2023/03/18 07:35:59;;;;;;;30.98;16.60;;;;;;;9.29;100.00;100832.56;4977378;28;20278;-85
2023/03/18 07:38:27;;;;;;;32.53;17.70;;;;;;;9.34;100.00;100840.88;4977495;28;20034;-86
2023/03/18 07:40:52;;;;;;;35.57;18.03;;;;;;;9.35;100.00;100842.56;4961675;28;20037;-86
2023/03/18 07:43:17;;;;;;;30.35;16.90;;;;;;;9.41;100.00;100841.72;4977665;28;20038;-85
2023/03/18 07:45:43;;;;;;;36.87;17.43;;;;;;;9.47;100.00;100842.78;4976870;28;20437;-86
2023/03/18 07:48:08;;;;;;;31.30;15.63;;;;;;;9.56;100.00;100857.75;4994375;28;20434;-86
2023/03/18 07:50:34;;;;;;;27.83;14.27;;;;;;;9.60;100.00;100853.59;4977065;28;20036;-86
2023/03/18 07:52:59;;;;;;;30.38;16.33;;;;;;;9.70;100.00;100855.03;4977941;28;20105;-86
2023/03/18 07:55:25;;;;;;;27.70;15.50;;;;;;;9.74;100.00;100854.41;4977147;28;20085;-85
2023/03/18 07:57:50;;;;;;;25.83;15.33;;;;;;;9.80;100.00;100860.88;4994884;28;20037;-85
2023/03/18 08:00:16;;;;;;;28.60;15.37;;;;;;;9.84;100.00;100852.13;4945935;28;20363;-84
2023/03/18 08:02:42;;;;;;;24.35;13.95;;;;;;;9.91;100.00;100854.00;4994610;28;20278;-84
2023/03/18 08:05:08;;;;;;;20.38;13.23;;;;;;;9.96;100.00;100854.19;4961230;28;20039;-84
2023/03/18 08:07:35;;;;;;;22.00;12.73;;;;;;;10.00;100.00;100839.19;4977297;28;20031;-84
2023/03/18 08:10:00;;;;;;;20.33;12.60;;;;;;;10.05;100.00;100835.81;4961510;28;20084;-84
2023/03/18 08:12:27;;;;;;;17.70;11.03;;;;;;;10.11;100.00;100843.09;4977177;28;20030;-84
2023/03/18 08:14:52;;;;;;;20.42;11.32;;;;;;;10.18;100.00;100830.38;4961045;28;20371;-83
2023/03/18 08:17:18;;;;;;;17.47;11.20;;;;;;;10.28;100.00;100830.75;4960420;28;20084;-84
2023/03/18 08:19:43;;;;;;;18.50;10.53;;;;;;;10.35;100.00;100826.16;4945214;28;20027;-83
2023/03/18 08:22:09;;;;;;;16.50;10.32;;;;;;;10.44;100.00;100836.78;4994086;28;20031;-84
2023/03/18 08:24:36;;;;;;;14.43;9.37;;;;;;;10.52;100.00;100837.34;4976874;28;20034;-84
2023/03/18 08:27:01;;;;;;;16.20;9.43;;;;;;;10.60;100.00;100830.03;4960768;28;20061;-84
2023/03/18 08:29:27;;;;;;;14.47;8.73;;;;;;;10.65;100.00;100831.03;4976874;28;20462;-84
2023/03/18 08:31:53;;;;;;;12.50;8.53;;;;;;;10.73;100.00;100838.09;4976460;28;20053;-84
2023/03/18 08:34:18;;;;;;;13.00;8.60;;;;;;;10.82;100.00;100833.25;4961308;28;20481;-84
2023/03/18 08:36:44;;;;;;;13.70;8.48;;;;;;;10.93;100.00;100842.59;4993947;28;20034;-84
2023/03/18 08:39:09;;;;;;;16.43;9.40;;;;;;;11.07;100.00;100849.59;4994674;28;20112;-84
2023/03/18 08:41:35;;;;;;;12.27;8.40;;;;;;;11.15;100.00;100849.34;4976727;28;20443;-84
2023/03/18 08:44:05;;;;;;;16.90;8.65;;;;;;;11.23;100.00;100849.09;4944816;28;20034;-84
2023/03/18 08:46:30;;;;;;;13.80;8.70;;;;;;;11.30;100.00;100854.47;4976838;28;20049;-84
2023/03/18 08:48:58;;;;;;;14.40;8.80;;;;;;;11.35;100.00;100856.50;4976459;28;20031;-84
2023/03/18 08:51:24;;;;;;;12.80;7.88;;;;;;;11.44;100.00;100851.66;4993982;28;20037;-82
2023/03/18 08:53:50;;;;;;;13.95;8.60;;;;;;;11.48;100.00;100858.31;4959937;28;20050;-82
2023/03/18 08:56:15;;;;;;;13.43;8.17;;;;;;;11.55;100.00;100867.25;4994179;28;20038;-82
2023/03/18 08:58:43;;;;;;;11.45;7.90;;;;;;;11.66;100.00;100862.97;4963028;28;20444;-83
2023/03/18 09:01:09;;;;;;;13.20;8.13;;;;;;;11.80;100.00;100861.78;4980200;28;20062;-82
2023/03/18 09:03:35;;;;;;;13.25;8.73;;;;;;;12.01;100.00;100859.75;4964221;28;20156;-83
2023/03/18 09:06:00;;;;;;;13.60;8.53;;;;;;;12.23;100.00;100865.59;4980738;28;20141;-82
2023/03/18 09:08:28;;;;;;;14.45;8.40;;;;;;;12.45;100.00;100868.69;4964534;28;20033;-82
2023/03/18 09:10:53;;;;;;;9.88;7.60;;;;;;;12.58;100.00;100867.72;4980895;28;20065;-82
2023/03/18 09:13:20;;;;;;;11.73;7.97;;;;;;;12.70;100.00;100870.50;4997437;28;20070;-82
2023/03/18 09:15:46;;;;;;;12.88;8.00;;;;;;;12.80;100.00;100871.59;4980129;28;20118;-82
2023/03/18 09:18:15;;;;;;;11.75;7.25;;;;;;;12.91;100.00;100867.25;4963788;28;20117;-82
2023/03/18 09:20:41;;;;;;;12.25;7.30;;;;;;;12.92;100.00;100866.19;4979687;28;20049;-84
2023/03/18 09:23:08;;;;;;;9.53;7.03;;;;;;;12.92;100.00;100858.03;4964063;28;20034;-82
2023/03/18 09:25:33;;;;;;;10.75;6.95;;;;;;;12.98;99.76;100869.91;4997716;28;20046;-82
2023/03/18 09:27:59;;;;;;;11.45;6.13;;;;;;;13.03;99.92;100869.19;4997194;28;20072;-82
2023/03/18 09:30:26;;;;;;;10.70;5.70;;;;;;;13.11;98.54;100875.16;4980792;28;20030;-82
2023/03/18 09:32:52;;;;;;;12.23;6.63;;;;;;;13.19;98.40;100867.72;4997452;28;20030;-83
2023/03/18 09:35:18;;;;;;;11.45;6.32;;;;;;;13.31;98.44;100869.41;4964670;28;20041;-83
2023/03/18 09:37:44;;;;;;;11.93;5.80;;;;;;;13.47;95.35;100861.66;4979465;28;20034;-83
2023/03/18 09:40:31;;;;;;;9.85;5.03;;;;;;;13.65;97.29;100861.53;4979511;28;20058;-82
2023/03/18 09:43:12;;;;;;;10.70;5.90;;;;;;;13.67;93.20;100861.31;4997013;28;20111;-82
2023/03/18 09:46:08;;;;;;;9.45;5.57;;;;;;;13.73;93.77;100857.66;4980169;28;20034;-82
2023/03/18 09:48:47;;;;;;;8.80;4.40;;;;;;;13.84;91.03;100867.72;4997372;28;20034;-83
2023/03/18 09:51:40;;;;;;;6.00;3.80;;;;;;;13.97;90.96;100868.56;4980196;28;20054;-85
2023/03/18 09:54:28;;;;;;;7.28;3.97;;;;;;;14.16;89.55;100863.81;4979371;28;20447;-82
2023/03/18 09:56:54;;;;;;;7.70;4.10;;;;;;;14.26;87.97;100858.59;4996678;28;20030;-83
2023/03/18 09:59:40;;;;;;;6.65;4.05;;;;;;;14.36;86.40;100857.97;4979435;28;20062;-82
2023/03/18 10:02:19;;;;;;;6.97;4.00;;;;;;;14.48;86.93;100847.88;4979112;28;20029;-83
2023/03/18 10:05:16;;;;;;;9.80;3.80;;;;;;;14.73;86.48;100852.19;4996865;28;20037;-83
2023/03/18 10:07:46;;;;;;;7.90;2.70;;;;;;;14.85;82.62;100860.34;4976009;28;20515;-83
2023/03/18 10:10:28;;;;;;;6.93;3.53;;;;;;;14.84;83.08;100872.34;4978456;28;20061;-84
2023/03/18 10:13:12;;;;;;;5.80;3.35;;;;;;;14.99;84.48;100878.09;4979365;28;20038;-82
2023/03/18 10:15:46;;;;;;;6.07;3.10;;;;;;;15.19;80.48;100868.63;4997120;28;20061;-83
2023/03/18 10:18:32;;;;;;;7.65;3.80;;;;;;;15.36;80.23;100864.00;4978872;28;20022;-83
2023/03/18 10:21:20;;;;;;;6.90;2.97;;;;;;;15.68;78.95;100859.88;4979550;28;20034;-83
2023/03/18 10:24:04;;;;;;;7.93;2.93;;;;;;;15.71;76.57;100867.59;4978807;28;20030;-84
2023/03/18 10:26:56;;;;;;;6.45;3.10;;;;;;;15.69;77.62;100867.81;4996354;28;20522;-83
2023/03/18 10:29:44;;;;;;;7.53;3.20;;;;;;;15.89;76.78;100875.56;4978894;28;20500;-83
2023/03/18 10:32:25;;;;;;;5.55;2.95;;;;;;;16.12;74.29;100869.06;4996253;28;20030;-83
2023/03/18 10:35:15;;;;;;;4.63;2.80;;;;;;;16.58;75.99;100866.13;4978498;28;20034;-83
2023/03/18 10:37:52;;;;;;;6.60;3.10;;;;;;;16.82;71.92;100869.41;4978613;28;20042;-83
2023/03/18 10:40:19;;;;;;;6.15;3.10;;;;;;;16.94;70.14;100857.50;4978792;28;20089;-84
2023/03/18 10:42:47;;;;;;;4.35;2.80;;;;;;;17.21;70.40;100862.16;4978287;28;20031;-82
2023/03/18 10:45:27;;;;;;;9.18;2.60;;;;;;;17.16;69.74;100854.72;4996587;28;20030;-83
2023/03/18 10:48:09;;;;;;;6.65;2.08;;;;;;;16.92;69.01;100852.28;4995999;28;20032;-85
2023/03/18 10:50:42;;;;;;;5.67;1.77;;;;;;;16.81;65.55;100856.78;4995904;28;20121;-84
2023/03/18 10:53:26;;;;;;;8.30;1.83;;;;;;;16.68;67.18;100851.69;4996132;28;20106;-84
2023/03/18 10:56:04;;;;;;;5.03;1.83;;;;;;;16.49;67.45;100845.75;4977759;28;20390;-84
2023/03/18 10:58:31;;;;;;;5.28;2.08;;;;;;;16.40;66.75;100844.50;4995629;28;20041;-84
2023/03/18 11:00:56;;;;;;;7.00;2.15;;;;;;;16.31;67.69;100844.97;4962044;28;20043;-83
2023/03/18 11:03:33;;;;;;;5.90;1.90;;;;;;;16.53;67.67;100849.59;4978774;28;20045;-83
2023/03/18 11:06:01;;;;;;;6.15;2.30;;;;;;;16.66;66.71;100859.34;4995243;28;20029;-83
2023/03/18 11:08:28;;;;;;;6.07;2.08;;;;;;;16.50;66.16;100861.06;4977899;28;20074;-83
2023/03/18 11:10:54;;;;;;;8.23;1.90;;;;;;;16.43;68.14;100854.94;4978120;28;20093;-84
2023/03/18 11:13:20;;;;;;;9.05;2.70;;;;;;;16.43;67.93;100852.22;4978206;28;20407;-84
2023/03/18 11:15:55;;;;;;;4.68;2.50;;;;;;;16.43;68.72;100849.47;4978103;28;20125;-83